sensor_id;sensor_type;location;lat;lon;timestamp;pressure;altitude;pressure_sealevel;temperature;humidity
52719;BME280;38616;42.140;24.760;2023-05-23T00:01:17;99303.69;;;16.75;65.64
52719;BME280;38616;42.140;24.760;2023-05-23T00:03:42;99295.84;;;16.55;66.42
52719;BME280;38616;42.140;24.760;2023-05-23T00:06:11;99294.97;;;16.34;67.31
52719;BME280;38616;42.140;24.760;2023-05-23T00:08:36;99297.31;;;16.44;66.72
52719;BME280;38616;42.140;24.760;2023-05-23T00:11:04;99306.50;;;16.48;66.41
52719;BME280;38616;42.140;24.760;2023-05-23T00:13:29;99300.09;;;16.35;66.69
52719;BME280;38616;42.140;24.760;2023-05-23T00:15:58;99297.56;;;16.21;67.62
52719;BME280;38616;42.140;24.760;2023-05-23T00:18:24;99296.91;;;16.16;67.45
52719;BME280;38616;42.140;24.760;2023-05-23T00:20:49;99291.13;;;16.08;67.63
52719;BME280;38616;42.140;24.760;2023-05-23T00:23:18;99295.94;;;16.29;67.28
52719;BME280;38616;42.140;24.760;2023-05-23T00:25:45;99295.78;;;16.17;67.67
52719;BME280;38616;42.140;24.760;2023-05-23T00:28:17;99287.13;;;15.88;68.10
52719;BME280;38616;42.140;24.760;2023-05-23T00:30:42;99283.56;;;15.97;68.27
52719;BME280;38616;42.140;24.760;2023-05-23T00:33:08;99292.25;;;16.07;68.05
52719;BME280;38616;42.140;24.760;2023-05-23T00:35:33;99285.97;;;15.63;69.10
52719;BME280;38616;42.140;24.760;2023-05-23T00:37:59;99291.75;;;15.61;69.30
52719;BME280;38616;42.140;24.760;2023-05-23T00:40:26;99295.31;;;15.62;69.27
52719;BME280;38616;42.140;24.760;2023-05-23T00:42:52;99283.88;;;15.42;69.96
52719;BME280;38616;42.140;24.760;2023-05-23T00:45:17;99280.00;;;15.43;70.14
52719;BME280;38616;42.140;24.760;2023-05-23T00:47:43;99287.56;;;15.55;69.70
52719;BME280;38616;42.140;24.760;2023-05-23T00:50:13;99287.09;;;15.44;70.09
52719;BME280;38616;42.140;24.760;2023-05-23T00:52:41;99276.78;;;15.41;70.61
52719;BME280;38616;42.140;24.760;2023-05-23T00:55:07;99279.69;;;15.54;70.24
52719;BME280;38616;42.140;24.760;2023-05-23T00:57:34;99284.69;;;15.43;70.51
52719;BME280;38616;42.140;24.760;2023-05-23T01:00:03;99284.00;;;15.19;71.70
52719;BME280;38616;42.140;24.760;2023-05-23T01:02:33;99284.97;;;15.15;71.93
52719;BME280;38616;42.140;24.760;2023-05-23T01:05:00;99289.66;;;15.23;71.64
52719;BME280;38616;42.140;24.760;2023-05-23T01:07:26;99276.94;;;15.27;71.62
52719;BME280;38616;42.140;24.760;2023-05-23T01:09:52;99280.91;;;15.12;72.18
52719;BME280;38616;42.140;24.760;2023-05-23T01:15:11;99279.63;;;15.18;71.77
52719;BME280;38616;42.140;24.760;2023-05-23T01:18:06;99292.53;;;15.18;71.92
52719;BME280;38616;42.140;24.760;2023-05-23T01:20:37;99272.22;;;15.10;71.95
52719;BME280;38616;42.140;24.760;2023-05-23T01:26:32;99271.50;;;15.45;71.01
52719;BME280;38616;42.140;24.760;2023-05-23T01:29:11;99266.63;;;15.59;69.68
52719;BME280;38616;42.140;24.760;2023-05-23T01:31:42;99267.63;;;15.55;70.01
52719;BME280;38616;42.140;24.760;2023-05-23T01:34:11;99265.03;;;15.49;69.94
52719;BME280;38616;42.140;24.760;2023-05-23T01:36:39;99269.22;;;15.64;69.45
52719;BME280;38616;42.140;24.760;2023-05-23T01:39:06;99262.16;;;15.90;68.63
52719;BME280;38616;42.140;24.760;2023-05-23T01:41:32;99266.34;;;15.87;67.93
52719;BME280;38616;42.140;24.760;2023-05-23T01:43:57;99270.38;;;15.72;68.02
52719;BME280;38616;42.140;24.760;2023-05-23T01:46:23;99266.97;;;15.49;68.89
52719;BME280;38616;42.140;24.760;2023-05-23T01:48:51;99267.94;;;15.35;69.15
52719;BME280;38616;42.140;24.760;2023-05-23T01:51:17;99274.38;;;15.40;69.12
52719;BME280;38616;42.140;24.760;2023-05-23T01:53:43;99267.28;;;15.47;68.87
52719;BME280;38616;42.140;24.760;2023-05-23T01:56:09;99269.72;;;15.75;67.89
52719;BME280;38616;42.140;24.760;2023-05-23T01:58:35;99263.75;;;15.64;68.34
52719;BME280;38616;42.140;24.760;2023-05-23T02:01:00;99258.44;;;15.94;67.47
52719;BME280;38616;42.140;24.760;2023-05-23T02:03:25;99267.59;;;15.81;67.26
52719;BME280;38616;42.140;24.760;2023-05-23T02:05:51;99264.88;;;15.72;68.06
52719;BME280;38616;42.140;24.760;2023-05-23T02:08:16;99261.50;;;15.31;69.01
52719;BME280;38616;42.140;24.760;2023-05-23T02:10:42;99266.75;;;15.10;69.21
52719;BME280;38616;42.140;24.760;2023-05-23T02:13:07;99254.88;;;15.15;68.37
52719;BME280;38616;42.140;24.760;2023-05-23T02:15:32;99256.00;;;15.14;67.95
52719;BME280;38616;42.140;24.760;2023-05-23T02:17:58;99262.88;;;15.11;68.03
52719;BME280;38616;42.140;24.760;2023-05-23T02:20:25;99254.22;;;15.18;67.60
52719;BME280;38616;42.140;24.760;2023-05-23T02:22:51;99256.81;;;15.32;66.43
52719;BME280;38616;42.140;24.760;2023-05-23T02:25:16;99255.22;;;15.48;66.41
52719;BME280;38616;42.140;24.760;2023-05-23T02:27:42;99256.66;;;15.46;66.66
52719;BME280;38616;42.140;24.760;2023-05-23T02:30:07;99261.47;;;15.22;67.42
52719;BME280;38616;42.140;24.760;2023-05-23T02:32:33;99267.22;;;15.12;68.17
52719;BME280;38616;42.140;24.760;2023-05-23T02:34:59;99263.22;;;15.10;68.68
52719;BME280;38616;42.140;24.760;2023-05-23T02:37:24;99262.38;;;15.00;68.46
52719;BME280;38616;42.140;24.760;2023-05-23T02:39:49;99261.59;;;15.09;68.34
52719;BME280;38616;42.140;24.760;2023-05-23T02:42:15;99262.44;;;15.18;68.34
52719;BME280;38616;42.140;24.760;2023-05-23T02:44:40;99257.28;;;15.25;67.69
52719;BME280;38616;42.140;24.760;2023-05-23T02:47:06;99264.22;;;15.40;67.52
52719;BME280;38616;42.140;24.760;2023-05-23T02:49:31;99258.03;;;14.99;68.42
52719;BME280;38616;42.140;24.760;2023-05-23T02:51:56;99262.75;;;15.16;68.52
52719;BME280;38616;42.140;24.760;2023-05-23T02:54:22;99254.19;;;15.09;68.15
52719;BME280;38616;42.140;24.760;2023-05-23T02:56:47;99257.78;;;15.27;67.53
52719;BME280;38616;42.140;24.760;2023-05-23T02:59:14;99257.16;;;15.57;66.67
52719;BME280;38616;42.140;24.760;2023-05-23T03:01:40;99263.44;;;15.66;66.51
52719;BME280;38616;42.140;24.760;2023-05-23T03:04:05;99265.53;;;15.51;66.52
52719;BME280;38616;42.140;24.760;2023-05-23T03:06:34;99252.31;;;15.71;66.14
52719;BME280;38616;42.140;24.760;2023-05-23T03:09:01;99248.78;;;15.79;65.51
52719;BME280;38616;42.140;24.760;2023-05-23T03:11:26;99260.84;;;15.61;66.48
52719;BME280;38616;42.140;24.760;2023-05-23T03:13:54;99254.09;;;15.67;66.14
52719;BME280;38616;42.140;24.760;2023-05-23T03:16:21;99255.84;;;15.72;65.70
52719;BME280;38616;42.140;24.760;2023-05-23T03:18:46;99255.19;;;15.75;65.62
52719;BME280;38616;42.140;24.760;2023-05-23T03:21:11;99259.09;;;15.39;66.46
52719;BME280;38616;42.140;24.760;2023-05-23T03:23:37;99256.84;;;15.67;66.03
52719;BME280;38616;42.140;24.760;2023-05-23T03:26:02;99261.34;;;15.63;66.21
52719;BME280;38616;42.140;24.760;2023-05-23T03:28:30;99262.28;;;15.76;65.80
52719;BME280;38616;42.140;24.760;2023-05-23T03:30:56;99271.00;;;15.69;65.94
52719;BME280;38616;42.140;24.760;2023-05-23T03:33:21;99268.09;;;15.92;65.64
52719;BME280;38616;42.140;24.760;2023-05-23T03:35:46;99257.34;;;15.87;65.38
52719;BME280;38616;42.140;24.760;2023-05-23T03:38:12;99253.63;;;15.65;66.42
52719;BME280;38616;42.140;24.760;2023-05-23T03:40:37;99255.38;;;15.70;66.25
52719;BME280;38616;42.140;24.760;2023-05-23T03:43:04;99260.34;;;15.68;66.14
52719;BME280;38616;42.140;24.760;2023-05-23T03:45:33;99267.31;;;15.39;67.27
52719;BME280;38616;42.140;24.760;2023-05-23T03:47:59;99260.22;;;15.38;67.33
52719;BME280;38616;42.140;24.760;2023-05-23T03:50:25;99261.78;;;15.21;66.94
52719;BME280;38616;42.140;24.760;2023-05-23T03:52:51;99259.88;;;15.30;66.50
52719;BME280;38616;42.140;24.760;2023-05-23T03:55:17;99259.69;;;15.27;65.69
52719;BME280;38616;42.140;24.760;2023-05-23T03:57:47;99265.84;;;15.32;65.61
52719;BME280;38616;42.140;24.760;2023-05-23T04:00:13;99266.00;;;15.45;65.13
52719;BME280;38616;42.140;24.760;2023-05-23T04:02:38;99258.91;;;15.79;64.17
52719;BME280;38616;42.140;24.760;2023-05-23T04:05:05;99262.78;;;15.95;63.70
52719;BME280;38616;42.140;24.760;2023-05-23T04:07:31;99266.66;;;15.86;62.92
52719;BME280;38616;42.140;24.760;2023-05-23T04:09:59;99273.59;;;15.74;63.75
52719;BME280;38616;42.140;24.760;2023-05-23T04:12:24;99273.41;;;15.97;62.84
52719;BME280;38616;42.140;24.760;2023-05-23T04:14:50;99270.34;;;15.99;61.63
52719;BME280;38616;42.140;24.760;2023-05-23T04:17:15;99265.84;;;15.94;61.62
52719;BME280;38616;42.140;24.760;2023-05-23T04:19:41;99278.41;;;15.77;61.86
52719;BME280;38616;42.140;24.760;2023-05-23T04:22:06;99269.41;;;15.68;61.58
52719;BME280;38616;42.140;24.760;2023-05-23T04:24:31;99274.69;;;15.82;61.43
52719;BME280;38616;42.140;24.760;2023-05-23T04:27:03;99279.88;;;15.92;60.12
52719;BME280;38616;42.140;24.760;2023-05-23T04:29:29;99273.56;;;16.18;59.34
52719;BME280;38616;42.140;24.760;2023-05-23T04:31:58;99274.22;;;15.98;60.25
52719;BME280;38616;42.140;24.760;2023-05-23T04:34:25;99278.72;;;15.76;61.37
52719;BME280;38616;42.140;24.760;2023-05-23T04:36:51;99281.66;;;15.88;61.41
52719;BME280;38616;42.140;24.760;2023-05-23T04:39:18;99283.56;;;16.14;60.76
52719;BME280;38616;42.140;24.760;2023-05-23T04:41:44;99278.38;;;16.13;60.90
52719;BME280;38616;42.140;24.760;2023-05-23T04:44:10;99279.47;;;16.29;60.98
52719;BME280;38616;42.140;24.760;2023-05-23T04:46:35;99280.78;;;16.32;60.45
52719;BME280;38616;42.140;24.760;2023-05-23T04:49:01;99288.66;;;16.33;60.03
52719;BME280;38616;42.140;24.760;2023-05-23T04:51:28;99285.88;;;16.51;59.54
52719;BME280;38616;42.140;24.760;2023-05-23T04:53:53;99286.97;;;16.59;59.53
52719;BME280;38616;42.140;24.760;2023-05-23T04:56:19;99288.38;;;16.65;58.71
52719;BME280;38616;42.140;24.760;2023-05-23T04:58:46;99288.63;;;16.81;58.61
52719;BME280;38616;42.140;24.760;2023-05-23T05:01:12;99290.47;;;16.77;58.61
52719;BME280;38616;42.140;24.760;2023-05-23T05:03:38;99283.84;;;17.08;57.99
52719;BME280;38616;42.140;24.760;2023-05-23T05:06:04;99280.66;;;17.06;58.09
52719;BME280;38616;42.140;24.760;2023-05-23T05:08:30;99284.38;;;17.52;57.04
52719;BME280;38616;42.140;24.760;2023-05-23T05:10:56;99284.84;;;17.76;56.94
52719;BME280;38616;42.140;24.760;2023-05-23T05:13:22;99283.56;;;17.94;56.33
52719;BME280;38616;42.140;24.760;2023-05-23T05:15:47;99283.06;;;18.13;56.18
52719;BME280;38616;42.140;24.760;2023-05-23T05:18:13;99287.63;;;18.09;55.03
52719;BME280;38616;42.140;24.760;2023-05-23T05:20:38;99286.84;;;18.09;55.07
52719;BME280;38616;42.140;24.760;2023-05-23T05:23:04;99291.47;;;18.29;55.16
52719;BME280;38616;42.140;24.760;2023-05-23T05:25:29;99289.06;;;18.28;55.22
52719;BME280;38616;42.140;24.760;2023-05-23T05:28:01;99298.25;;;18.32;54.63
52719;BME280;38616;42.140;24.760;2023-05-23T05:30:32;99290.28;;;18.18;55.24
52719;BME280;38616;42.140;24.760;2023-05-23T05:33:01;99299.19;;;18.15;55.54
52719;BME280;38616;42.140;24.760;2023-05-23T05:35:30;99302.78;;;17.31;57.87
52719;BME280;38616;42.140;24.760;2023-05-23T05:37:55;99299.00;;;17.14;59.03
52719;BME280;38616;42.140;24.760;2023-05-23T05:40:21;99303.34;;;17.15;59.40
52719;BME280;38616;42.140;24.760;2023-05-23T05:42:48;99312.91;;;17.09;59.83
52719;BME280;38616;42.140;24.760;2023-05-23T05:45:14;99312.91;;;17.09;59.96
52719;BME280;38616;42.140;24.760;2023-05-23T05:47:39;99299.94;;;17.18;60.04
52719;BME280;38616;42.140;24.760;2023-05-23T05:50:06;99300.22;;;17.25;59.76
52719;BME280;38616;42.140;24.760;2023-05-23T05:52:33;99311.56;;;17.45;59.30
52719;BME280;38616;42.140;24.760;2023-05-23T05:55:03;99298.25;;;17.56;58.44
52719;BME280;38616;42.140;24.760;2023-05-23T05:57:30;99304.72;;;17.94;57.54
52719;BME280;38616;42.140;24.760;2023-05-23T05:59:56;99299.56;;;18.13;56.88
52719;BME280;38616;42.140;24.760;2023-05-23T06:02:21;99301.66;;;17.95;57.11
52719;BME280;38616;42.140;24.760;2023-05-23T06:04:47;99294.38;;;17.99;57.06
52719;BME280;38616;42.140;24.760;2023-05-23T06:07:12;99304.88;;;18.31;56.78
52719;BME280;38616;42.140;24.760;2023-05-23T06:09:37;99323.53;;;18.25;56.85
52719;BME280;38616;42.140;24.760;2023-05-23T06:12:04;99305.47;;;18.03;56.60
52719;BME280;38616;42.140;24.760;2023-05-23T06:14:30;99310.50;;;18.35;56.40
52719;BME280;38616;42.140;24.760;2023-05-23T06:16:55;99300.66;;;18.46;55.35
52719;BME280;38616;42.140;24.760;2023-05-23T06:19:20;99291.03;;;18.40;54.98
52719;BME280;38616;42.140;24.760;2023-05-23T06:21:46;99296.44;;;18.49;54.88
52719;BME280;38616;42.140;24.760;2023-05-23T06:24:11;99299.56;;;18.59;55.13
52719;BME280;38616;42.140;24.760;2023-05-23T06:26:37;99298.72;;;18.59;54.38
52719;BME280;38616;42.140;24.760;2023-05-23T06:29:03;99303.13;;;18.72;54.54
52719;BME280;38616;42.140;24.760;2023-05-23T06:31:29;99302.38;;;18.97;53.91
52719;BME280;38616;42.140;24.760;2023-05-23T06:33:55;99299.81;;;19.16;53.08
52719;BME280;38616;42.140;24.760;2023-05-23T06:36:20;99288.72;;;19.13;53.88
52719;BME280;38616;42.140;24.760;2023-05-23T06:38:46;99295.34;;;19.37;53.79
52719;BME280;38616;42.140;24.760;2023-05-23T06:41:12;99299.19;;;19.48;53.07
52719;BME280;38616;42.140;24.760;2023-05-23T06:43:37;99289.00;;;19.89;53.01
52719;BME280;38616;42.140;24.760;2023-05-23T06:46:03;99293.69;;;19.48;53.25
52719;BME280;38616;42.140;24.760;2023-05-23T06:48:28;99289.50;;;19.67;53.70
52719;BME280;38616;42.140;24.760;2023-05-23T06:50:54;99290.59;;;19.49;53.31
52719;BME280;38616;42.140;24.760;2023-05-23T06:53:19;99282.81;;;19.39;53.92
52719;BME280;38616;42.140;24.760;2023-05-23T06:55:45;99284.03;;;19.54;54.11
52719;BME280;38616;42.140;24.760;2023-05-23T06:58:10;99280.94;;;19.84;53.49
52719;BME280;38616;42.140;24.760;2023-05-23T07:00:35;99273.19;;;19.74;52.98
52719;BME280;38616;42.140;24.760;2023-05-23T07:03:02;99281.03;;;20.00;52.95
52719;BME280;38616;42.140;24.760;2023-05-23T07:05:28;99285.59;;;19.68;53.31
52719;BME280;38616;42.140;24.760;2023-05-23T07:07:53;99278.47;;;19.67;53.22
52719;BME280;38616;42.140;24.760;2023-05-23T07:10:19;99269.72;;;19.48;53.00
52719;BME280;38616;42.140;24.760;2023-05-23T07:12:45;99276.84;;;19.78;52.44
52719;BME280;38616;42.140;24.760;2023-05-23T07:15:11;99279.19;;;19.63;52.81
52719;BME280;38616;42.140;24.760;2023-05-23T07:17:36;99273.53;;;19.72;53.15
52719;BME280;38616;42.140;24.760;2023-05-23T07:20:02;99275.06;;;19.98;52.50
52719;BME280;38616;42.140;24.760;2023-05-23T07:22:29;99268.19;;;20.36;51.89
52719;BME280;38616;42.140;24.760;2023-05-23T07:24:55;99276.47;;;20.36;51.13
52719;BME280;38616;42.140;24.760;2023-05-23T07:27:20;99270.88;;;20.49;51.17
52719;BME280;38616;42.140;24.760;2023-05-23T07:29:46;99266.06;;;20.78;50.79
52719;BME280;38616;42.140;24.760;2023-05-23T07:32:11;99267.75;;;20.50;51.01
52719;BME280;38616;42.140;24.760;2023-05-23T07:34:36;99264.81;;;20.59;50.98
52719;BME280;38616;42.140;24.760;2023-05-23T07:37:04;99262.06;;;20.59;51.50
52719;BME280;38616;42.140;24.760;2023-05-23T07:39:30;99259.41;;;20.47;51.52
52719;BME280;38616;42.140;24.760;2023-05-23T07:41:55;99260.81;;;20.89;51.43
52719;BME280;38616;42.140;24.760;2023-05-23T07:44:21;99264.09;;;20.94;50.30
52719;BME280;38616;42.140;24.760;2023-05-23T07:46:46;99267.84;;;21.02;49.19
52719;BME280;38616;42.140;24.760;2023-05-23T07:49:12;99268.84;;;20.78;50.33
52719;BME280;38616;42.140;24.760;2023-05-23T07:51:37;99264.88;;;21.11;50.31
52719;BME280;38616;42.140;24.760;2023-05-23T07:54:02;99259.34;;;21.11;50.50
52719;BME280;38616;42.140;24.760;2023-05-23T07:56:28;99269.06;;;21.05;49.48
52719;BME280;38616;42.140;24.760;2023-05-23T07:58:53;99244.91;;;21.37;48.71
52719;BME280;38616;42.140;24.760;2023-05-23T08:01:19;99256.66;;;21.50;47.30
52719;BME280;38616;42.140;24.760;2023-05-23T08:03:44;99244.28;;;21.44;47.16
52719;BME280;38616;42.140;24.760;2023-05-23T08:06:10;99245.59;;;21.31;47.45
52719;BME280;38616;42.140;24.760;2023-05-23T08:08:35;99250.84;;;21.55;46.62
52719;BME280;38616;42.140;24.760;2023-05-23T08:11:02;99255.28;;;21.60;46.63
52719;BME280;38616;42.140;24.760;2023-05-23T08:13:27;99245.56;;;21.66;45.56
52719;BME280;38616;42.140;24.760;2023-05-23T08:15:53;99254.38;;;21.36;44.73
52719;BME280;38616;42.140;24.760;2023-05-23T08:18:19;99250.47;;;21.57;44.23
52719;BME280;38616;42.140;24.760;2023-05-23T08:20:44;99250.66;;;21.64;44.01
52719;BME280;38616;42.140;24.760;2023-05-23T08:23:10;99245.47;;;21.82;43.74
52719;BME280;38616;42.140;24.760;2023-05-23T08:25:37;99242.50;;;22.14;43.28
52719;BME280;38616;42.140;24.760;2023-05-23T08:28:03;99236.44;;;22.28;43.09
52719;BME280;38616;42.140;24.760;2023-05-23T08:30:28;99239.16;;;22.25;43.49
52719;BME280;38616;42.140;24.760;2023-05-23T08:32:55;99242.78;;;21.86;43.37
52719;BME280;38616;42.140;24.760;2023-05-23T08:35:22;99239.88;;;22.22;41.58
52719;BME280;38616;42.140;24.760;2023-05-23T08:37:49;99244.28;;;22.26;42.32
52719;BME280;38616;42.140;24.760;2023-05-23T08:40:20;99236.44;;;22.28;42.84
52719;BME280;38616;42.140;24.760;2023-05-23T08:42:49;99237.84;;;22.19;43.34
52719;BME280;38616;42.140;24.760;2023-05-23T08:45:16;99228.50;;;22.27;42.99
52719;BME280;38616;42.140;24.760;2023-05-23T08:47:43;99239.59;;;22.50;41.99
52719;BME280;38616;42.140;24.760;2023-05-23T08:50:14;99238.66;;;22.42;41.74
52719;BME280;38616;42.140;24.760;2023-05-23T08:52:52;99235.59;;;22.71;41.19
52719;BME280;38616;42.140;24.760;2023-05-23T08:55:19;99234.44;;;22.76;41.01
52719;BME280;38616;42.140;24.760;2023-05-23T08:57:44;99235.63;;;22.75;40.75
52719;BME280;38616;42.140;24.760;2023-05-23T09:00:13;99229.72;;;22.76;40.45
52719;BME280;38616;42.140;24.760;2023-05-23T09:02:44;99223.25;;;22.92;40.30
52719;BME280;38616;42.140;24.760;2023-05-23T09:05:10;99233.06;;;23.16;39.86
52719;BME280;38616;42.140;24.760;2023-05-23T09:07:36;99234.25;;;22.88;39.02
52719;BME280;38616;42.140;24.760;2023-05-23T09:10:06;99228.97;;;23.06;38.86
52719;BME280;38616;42.140;24.760;2023-05-23T09:12:33;99225.88;;;23.11;38.28
52719;BME280;38616;42.140;24.760;2023-05-23T09:15:00;99228.22;;;23.09;38.28
52719;BME280;38616;42.140;24.760;2023-05-23T09:17:25;99229.91;;;23.17;38.12
52719;BME280;38616;42.140;24.760;2023-05-23T09:19:51;99222.63;;;22.79;38.29
52719;BME280;38616;42.140;24.760;2023-05-23T09:22:22;99234.09;;;22.31;39.40
52719;BME280;38616;42.140;24.760;2023-05-23T09:24:51;99231.63;;;22.25;39.24
52719;BME280;38616;42.140;24.760;2023-05-23T09:27:17;99228.84;;;22.45;38.91
52719;BME280;38616;42.140;24.760;2023-05-23T09:29:42;99230.91;;;22.75;39.13
52719;BME280;38616;42.140;24.760;2023-05-23T09:32:20;99227.31;;;22.48;38.48
52719;BME280;38616;42.140;24.760;2023-05-23T09:34:55;99226.22;;;22.56;37.94
52719;BME280;38616;42.140;24.760;2023-05-23T09:37:38;99227.13;;;22.87;38.52
52719;BME280;38616;42.140;24.760;2023-05-23T09:42:46;99229.97;;;23.21;38.05
52719;BME280;38616;42.140;24.760;2023-05-23T09:45:13;99221.53;;;22.83;37.84
52719;BME280;38616;42.140;24.760;2023-05-23T09:47:48;99232.00;;;22.70;38.02
52719;BME280;38616;42.140;24.760;2023-05-23T09:50:13;99219.50;;;22.80;38.59
52719;BME280;38616;42.140;24.760;2023-05-23T09:52:39;99224.50;;;22.98;38.42
52719;BME280;38616;42.140;24.760;2023-05-23T09:55:05;99219.53;;;23.11;38.02
52719;BME280;38616;42.140;24.760;2023-05-23T09:57:34;99218.78;;;23.14;37.75
52719;BME280;38616;42.140;24.760;2023-05-23T10:00:03;99226.16;;;22.76;38.54
52719;BME280;38616;42.140;24.760;2023-05-23T10:08:07;99213.56;;;23.36;37.45
52719;BME280;38616;42.140;24.760;2023-05-23T10:10:34;99215.75;;;23.23;36.71
52719;BME280;38616;42.140;24.760;2023-05-23T10:13:02;99212.34;;;23.06;37.68
52719;BME280;38616;42.140;24.760;2023-05-23T10:15:36;99208.88;;;23.13;37.32
52719;BME280;38616;42.140;24.760;2023-05-23T10:18:15;99203.06;;;23.22;37.33
52719;BME280;38616;42.140;24.760;2023-05-23T10:20:46;99207.75;;;23.17;37.93
52719;BME280;38616;42.140;24.760;2023-05-23T10:23:12;99209.66;;;23.13;37.46
52719;BME280;38616;42.140;24.760;2023-05-23T10:25:38;99210.84;;;23.12;37.24
52719;BME280;38616;42.140;24.760;2023-05-23T10:28:05;99203.78;;;23.45;37.20
52719;BME280;38616;42.140;24.760;2023-05-23T10:30:31;99205.75;;;23.45;36.55
52719;BME280;38616;42.140;24.760;2023-05-23T10:32:56;99199.91;;;23.54;36.92
52719;BME280;38616;42.140;24.760;2023-05-23T10:35:44;99191.69;;;23.61;36.96
52719;BME280;38616;42.140;24.760;2023-05-23T10:41:05;99200.91;;;23.38;37.73
52719;BME280;38616;42.140;24.760;2023-05-23T10:46:07;99185.91;;;23.12;37.70
52719;BME280;38616;42.140;24.760;2023-05-23T10:48:33;99185.59;;;23.17;38.43
52719;BME280;38616;42.140;24.760;2023-05-23T10:51:07;99186.81;;;23.20;37.97
52719;BME280;38616;42.140;24.760;2023-05-23T10:53:38;99184.47;;;23.53;39.16
52719;BME280;38616;42.140;24.760;2023-05-23T10:56:04;99185.84;;;23.70;39.12
52719;BME280;38616;42.140;24.760;2023-05-23T10:58:32;99180.88;;;23.86;38.94
52719;BME280;38616;42.140;24.760;2023-05-23T11:01:04;99181.94;;;24.12;39.14
52719;BME280;38616;42.140;24.760;2023-05-23T11:04:03;99186.44;;;24.31;39.71
52719;BME280;38616;42.140;24.760;2023-05-23T11:06:38;99181.38;;;24.41;38.60
52719;BME280;38616;42.140;24.760;2023-05-23T11:09:06;99187.44;;;24.57;38.00
52719;BME280;38616;42.140;24.760;2023-05-23T11:14:33;99189.19;;;24.73;37.62
52719;BME280;38616;42.140;24.760;2023-05-23T11:17:36;99186.06;;;24.85;37.44
52719;BME280;38616;42.140;24.760;2023-05-23T11:25:13;99185.69;;;24.90;37.06
52719;BME280;38616;42.140;24.760;2023-05-23T11:27:45;99189.41;;;24.53;37.62
52719;BME280;38616;42.140;24.760;2023-05-23T11:30:14;99201.00;;;24.17;37.43
52719;BME280;38616;42.140;24.760;2023-05-23T11:32:52;99199.19;;;23.60;37.90
52719;BME280;38616;42.140;24.760;2023-05-23T11:35:18;99195.00;;;23.74;37.63
52719;BME280;38616;42.140;24.760;2023-05-23T11:37:45;99197.69;;;24.04;37.06
52719;BME280;38616;42.140;24.760;2023-05-23T11:40:30;99184.88;;;23.93;36.34
52719;BME280;38616;42.140;24.760;2023-05-23T11:42:57;99192.56;;;23.69;36.29
52719;BME280;38616;42.140;24.760;2023-05-23T11:45:23;99195.78;;;23.37;36.53
52719;BME280;38616;42.140;24.760;2023-05-23T11:47:52;99195.06;;;23.43;36.87
52719;BME280;38616;42.140;24.760;2023-05-23T11:50:17;99193.66;;;23.98;36.70
52719;BME280;38616;42.140;24.760;2023-05-23T11:52:44;99188.53;;;24.45;36.67
52719;BME280;38616;42.140;24.760;2023-05-23T11:55:16;99196.06;;;24.97;36.09
52719;BME280;38616;42.140;24.760;2023-05-23T11:57:42;99205.91;;;24.87;35.18
52719;BME280;38616;42.140;24.760;2023-05-23T12:00:08;99210.13;;;24.67;39.68
52719;BME280;38616;42.140;24.760;2023-05-23T12:02:39;99205.34;;;24.63;41.37
52719;BME280;38616;42.140;24.760;2023-05-23T12:05:12;99209.53;;;24.43;42.59
52719;BME280;38616;42.140;24.760;2023-05-23T12:07:43;99201.69;;;24.52;43.15
52719;BME280;38616;42.140;24.760;2023-05-23T12:10:09;99205.69;;;24.58;42.56
52719;BME280;38616;42.140;24.760;2023-05-23T12:12:35;99201.84;;;24.74;41.51
52719;BME280;38616;42.140;24.760;2023-05-23T12:15:01;99201.84;;;24.74;40.67
52719;BME280;38616;42.140;24.760;2023-05-23T12:17:27;99196.25;;;24.67;39.52
52719;BME280;38616;42.140;24.760;2023-05-23T12:19:52;99204.06;;;24.50;39.33
52719;BME280;38616;42.140;24.760;2023-05-23T12:22:22;99200.81;;;24.41;39.32
52719;BME280;38616;42.140;24.760;2023-05-23T12:24:52;99190.00;;;24.28;39.94
52719;BME280;38616;42.140;24.760;2023-05-23T12:27:18;99189.16;;;24.24;40.43
52719;BME280;38616;42.140;24.760;2023-05-23T12:29:49;99180.56;;;24.40;40.41
52719;BME280;38616;42.140;24.760;2023-05-23T12:32:18;99180.31;;;24.56;40.23
52719;BME280;38616;42.140;24.760;2023-05-23T12:34:43;99181.06;;;24.53;40.21
52719;BME280;38616;42.140;24.760;2023-05-23T12:37:09;99170.97;;;24.27;40.49
52719;BME280;38616;42.140;24.760;2023-05-23T12:39:37;99163.34;;;24.20;40.62
52719;BME280;38616;42.140;24.760;2023-05-23T12:42:09;99171.56;;;24.05;40.56
52719;BME280;38616;42.140;24.760;2023-05-23T12:44:35;99159.31;;;24.10;40.75
52719;BME280;38616;42.140;24.760;2023-05-23T12:47:02;99159.06;;;24.26;40.94
52719;BME280;38616;42.140;24.760;2023-05-23T12:49:27;99157.47;;;24.25;40.70
52719;BME280;38616;42.140;24.760;2023-05-23T12:51:53;99156.75;;;24.39;40.88
52719;BME280;38616;42.140;24.760;2023-05-23T12:54:18;99145.75;;;24.50;40.61
52719;BME280;38616;42.140;24.760;2023-05-23T12:56:43;99141.81;;;24.55;40.56
52719;BME280;38616;42.140;24.760;2023-05-23T12:59:09;99142.94;;;24.46;39.91
52719;BME280;38616;42.140;24.760;2023-05-23T13:01:34;99146.13;;;24.48;39.65
52719;BME280;38616;42.140;24.760;2023-05-23T13:04:00;99140.97;;;24.47;40.41
52719;BME280;38616;42.140;24.760;2023-05-23T13:06:26;99133.94;;;24.64;40.74
52719;BME280;38616;42.140;24.760;2023-05-23T13:08:52;99131.94;;;24.61;41.00
52719;BME280;38616;42.140;24.760;2023-05-23T13:11:19;99148.63;;;24.68;41.25
52719;BME280;38616;42.140;24.760;2023-05-23T13:13:47;99150.69;;;24.75;41.20
52719;BME280;38616;42.140;24.760;2023-05-23T13:16:12;99151.53;;;24.83;40.71
52719;BME280;38616;42.140;24.760;2023-05-23T13:18:38;99138.38;;;24.76;40.15